Impacts TAF Board INFO
FOR SITUATIONAL AWARENESS. NOT TO BE USED FOR FLIGHT PLANNING PURPOSES.
IDs:

KSAN - San Diego Intl Arpt, CA, US

Issued at 1449 UTC 25 Apr 2018
Updated at 1618 UTC 25 Apr 2018
Potential Impact None Slight Moderate High
Time1551Z 25/17Z 25/18Z 25/19Z 25/20Z 25/21Z 25/22Z 25/23Z 26/00Z 26/01Z 26/02Z 26/03Z 26/04Z 26/05Z>>
Type OBS PRVL PRVL PRVL PRVL PRVL PRVL PRVL PRVL PRVL PRVL PRVL PRVL PRVL
VIS 6 >6 >6 >6 >6 >6 >6 >6 >6 >6 >6 >6 >6 >6
CIG -- -- -- -- -- -- -- -- -- -- -- -- 15 15
Cover FEW SCT SCT SKC SKC SKC SKC SKC SKC SCT SCT SCT OVC OVC
FltCat VFR VFR VFR VFR VFR VFR VFR VFR VFR VFR VFR VFR MVFR MVFR
WX HZ -- -- -- -- -- -- -- -- -- -- -- -- --
WDir VRB VRB VRB 270 270 270 270 270 270 VRB VRB VRB VRB VRB
WSpd 0 4 4 10 10 10 10 10 10 4 4 4 3 3
WGst -- -- -- -- -- -- -- -- -- -- -- -- -- --

Raw TAF
KSAN 251449Z 2515/2618 VRB04KT P6SM OVC014
  FM251530 VRB04KT P6SM SCT017
  FM251900 27010KT P6SM SKC
  FM260100 VRB04KT P6SM SCT016
  FM260400 VRB03KT P6SM OVC015
  FM261630 VRB04KT P6SM SCT018


Raw METAR
KSAN 251551Z 00000KT 6SM HZ FEW012 16/11 A3009 RMK AO2 SLP188 T01610111
KSAN 251458Z 00000KT 6SM BR FEW011 SCT014 15/11 A3009 RMK AO2 T01500111
KSAN 251451Z 00000KT 6SM BR BKN011 BKN014 14/11 A3009 RMK AO2 SLP188 T01440111 53007
KSAN 251351Z 00000KT 7SM BKN011 OVC014 14/11 A3008 RMK AO2 SLP186 T01390106

METAR Board
Radar Display
Forecast Discussion

FOR SITUATIONAL AWARENESS. NOT TO BE USED FOR FLIGHT PLANNING PURPOSES.